createdAt,value
2022-11-08T00:00:01.480Z,5.00
2022-11-08T00:02:29.585Z,4.40
2022-11-08T00:04:58.941Z,4.88
2022-11-08T00:07:44.485Z,5.20
2022-11-08T00:10:29.965Z,4.43
2022-11-08T00:13:15.376Z,5.07
2022-11-08T00:15:43.357Z,4.97
2022-11-08T00:18:11.268Z,5.03
2022-11-08T00:20:40.489Z,4.78
2022-11-08T00:23:08.504Z,4.80
2022-11-08T00:25:36.386Z,5.00
2022-11-08T00:28:04.433Z,4.80
2022-11-08T00:30:32.304Z,4.43
2022-11-08T00:33:00.179Z,4.60
2022-11-08T00:35:28.022Z,4.63
2022-11-08T00:37:57.232Z,4.20
2022-11-08T00:40:25.161Z,4.70
2022-11-08T00:42:53.072Z,4.32
2022-11-08T00:45:20.998Z,4.88
2022-11-08T00:47:48.931Z,4.63
2022-11-08T00:50:16.909Z,4.68
2022-11-08T00:52:44.854Z,4.32
2022-11-08T00:55:14.212Z,4.57
2022-11-08T00:57:58.539Z,4.72
2022-11-08T01:00:27.304Z,3.90
2022-11-08T01:03:15.252Z,4.15
2022-11-08T01:05:43.163Z,4.47
2022-11-08T01:08:11.310Z,4.32
2022-11-08T01:10:41.883Z,4.80
2022-11-08T01:13:09.936Z,4.47
2022-11-08T01:15:38.084Z,4.38
2022-11-08T01:18:06.424Z,4.40
2022-11-08T01:20:34.299Z,4.80
2022-11-08T01:23:02.257Z,4.97
2022-11-08T01:25:30.232Z,4.45
2022-11-08T01:27:59.563Z,4.60
2022-11-08T01:30:27.503Z,4.30
2022-11-08T01:32:55.362Z,4.28
2022-11-08T01:35:23.264Z,4.40
2022-11-08T01:37:52.273Z,4.30
2022-11-08T01:40:20.124Z,4.20
2022-11-08T01:42:48.045Z,4.65
2022-11-08T01:45:37.435Z,4.15
2022-11-08T01:48:05.495Z,4.55
2022-11-08T01:50:33.348Z,4.40
2022-11-08T01:53:01.279Z,4.18
2022-11-08T01:55:30.637Z,4.03
2022-11-08T01:57:59.580Z,3.97
2022-11-08T02:00:28.764Z,4.13
2022-11-08T02:02:58.268Z,4.05
2022-11-08T02:05:26.431Z,4.22
2022-11-08T02:07:56.484Z,4.05
2022-11-08T02:10:25.985Z,4.43
2022-11-08T02:12:54.224Z,4.10
2022-11-08T02:15:22.128Z,4.10
2022-11-08T02:17:51.379Z,4.05
2022-11-08T02:20:19.240Z,4.05
2022-11-08T02:22:49.578Z,4.00
2022-11-08T02:25:19.087Z,4.03
2022-11-08T02:27:46.968Z,3.90
2022-11-08T02:30:14.838Z,4.50
2022-11-08T02:32:42.804Z,4.05
2022-11-08T02:35:12.848Z,3.85
2022-11-08T02:37:40.719Z,4.03
2022-11-08T02:40:09.610Z,3.67
2022-11-08T02:42:39.936Z,4.22
2022-11-08T02:45:08.952Z,4.40
2022-11-08T02:47:36.827Z,4.10
2022-11-08T02:50:05.216Z,4.10
2022-11-08T02:52:33.078Z,3.80
2022-11-08T02:55:00.965Z,3.88
2022-11-08T02:57:28.843Z,3.88
2022-11-08T02:59:58.071Z,4.38
2022-11-08T03:02:26.108Z,3.90
2022-11-08T03:04:54.177Z,3.80
2022-11-08T03:07:24.849Z,3.85
2022-11-08T03:09:53.029Z,4.30
2022-11-08T03:12:21.146Z,3.78
2022-11-08T03:14:49.050Z,4.10
2022-11-08T03:17:18.258Z,3.78
2022-11-08T03:19:46.216Z,4.00
2022-11-08T03:22:14.135Z,4.35
2022-11-08T03:24:42.155Z,4.00
2022-11-08T03:27:10.037Z,4.00
2022-11-08T03:29:37.899Z,3.75
2022-11-08T03:32:06.122Z,3.78
2022-11-08T03:34:35.355Z,3.88
2022-11-08T03:37:03.295Z,3.80
2022-11-08T03:39:31.151Z,3.75
2022-11-08T03:42:02.843Z,3.75
2022-11-08T03:44:30.774Z,3.95
2022-11-08T03:46:58.630Z,3.63
2022-11-08T03:49:26.709Z,3.95
2022-11-08T03:51:55.949Z,3.58
2022-11-08T03:54:23.796Z,3.80
2022-11-08T03:56:51.668Z,3.83
2022-11-08T03:59:19.510Z,3.67
2022-11-08T04:01:47.583Z,3.45
2022-11-08T04:04:15.658Z,3.85
2022-11-08T04:06:43.556Z,3.75
2022-11-08T04:09:14.010Z,3.75
2022-11-08T04:12:00.829Z,3.50
2022-11-08T04:14:46.420Z,3.72
2022-11-08T04:17:14.351Z,3.80
2022-11-08T04:19:59.747Z,3.58
2022-11-08T04:22:27.614Z,3.38
2022-11-08T04:24:56.807Z,3.65
2022-11-08T04:27:24.692Z,3.97
2022-11-08T04:29:52.557Z,3.67
2022-11-08T04:32:20.425Z,3.35
2022-11-08T04:34:48.399Z,3.42
2022-11-08T04:37:16.246Z,3.58
2022-11-08T04:39:44.082Z,3.30
2022-11-08T04:42:13.302Z,3.80
2022-11-08T04:44:41.156Z,3.63
2022-11-08T04:47:10.059Z,3.63
2022-11-08T04:49:37.948Z,3.88
2022-11-08T04:52:06.386Z,3.65
2022-11-08T04:54:34.229Z,3.28
2022-11-08T04:57:02.120Z,3.50
2022-11-08T04:59:31.326Z,3.40
2022-11-08T05:01:59.240Z,3.50
2022-11-08T05:04:27.218Z,4.05
2022-11-08T05:06:55.112Z,3.60
2022-11-08T05:09:23.144Z,3.70
2022-11-08T05:11:51.026Z,3.75
2022-11-08T05:14:19.097Z,3.80
2022-11-08T05:16:48.352Z,4.00
2022-11-08T05:19:36.180Z,3.72
2022-11-08T05:22:21.505Z,3.75
2022-11-08T05:24:49.365Z,3.80
2022-11-08T05:27:17.277Z,3.70
2022-11-08T05:29:45.116Z,3.67
2022-11-08T05:32:14.315Z,3.70
2022-11-08T05:34:42.181Z,3.70
2022-11-08T05:37:10.032Z,3.92
2022-11-08T05:39:37.901Z,4.22
2022-11-08T05:42:05.956Z,3.50
2022-11-08T05:44:33.816Z,3.38
2022-11-08T05:47:01.702Z,3.88
2022-11-08T05:49:30.909Z,3.53
2022-11-08T05:51:58.920Z,3.50
2022-11-08T05:54:26.775Z,3.75
2022-11-08T05:56:54.696Z,3.70
2022-11-08T05:59:22.734Z,3.63
2022-11-08T06:01:50.707Z,3.67
2022-11-08T06:04:18.606Z,3.60
2022-11-08T06:06:50.302Z,3.60
2022-11-08T06:09:18.152Z,4.97
2022-11-08T06:11:46.025Z,5.88
2022-11-08T06:14:14.009Z,6.70
2022-11-08T06:16:42.019Z,7.03
2022-11-08T06:19:09.888Z,8.05
2022-11-08T06:21:37.769Z,8.25
2022-11-08T06:24:07.955Z,9.82
2022-11-08T06:26:35.966Z,10.20
2022-11-08T06:29:03.836Z,11.32
2022-11-08T06:31:31.691Z,13.05
2022-11-08T06:33:59.629Z,12.27
2022-11-08T06:36:27.520Z,12.30
2022-11-08T06:38:55.658Z,12.77
2022-11-08T06:41:24.853Z,11.52
2022-11-08T06:43:52.743Z,12.63
2022-11-08T06:46:20.713Z,12.80
2022-11-08T06:48:48.664Z,12.38
2022-11-08T06:51:16.519Z,12.20
2022-11-08T06:53:44.543Z,11.45
2022-11-08T06:56:12.506Z,11.90
2022-11-08T06:58:42.001Z,10.98
2022-11-08T07:01:10.826Z,10.93
2022-11-08T07:03:38.790Z,11.10
2022-11-08T07:06:06.993Z,11.55
2022-11-08T07:08:35.129Z,10.02
2022-11-08T07:11:03.179Z,10.48
2022-11-08T07:13:31.260Z,10.30
2022-11-08T07:16:00.779Z,9.77
2022-11-08T07:18:28.840Z,9.95
2022-11-08T07:20:59.930Z,10.18
2022-11-08T07:23:27.969Z,10.18
2022-11-08T07:25:56.238Z,9.75
2022-11-08T07:28:24.180Z,9.75
2022-11-08T07:30:52.175Z,9.75
2022-11-08T07:33:21.919Z,9.68
2022-11-08T07:35:50.446Z,9.30
2022-11-08T07:38:18.381Z,8.85
2022-11-08T07:40:46.352Z,8.50
2022-11-08T07:43:14.279Z,9.35
2022-11-08T07:45:43.951Z,8.90
2022-11-08T07:48:13.702Z,8.50
2022-11-08T07:50:43.580Z,9.05
2022-11-08T07:53:11.598Z,9.07
2022-11-08T07:55:39.679Z,8.60
2022-11-08T07:58:07.951Z,9.30
2022-11-08T08:00:37.165Z,8.98
2022-11-08T08:03:05.827Z,8.65
2022-11-08T08:05:35.289Z,8.85
2022-11-08T08:08:04.807Z,7.90
2022-11-08T08:10:32.970Z,7.75
2022-11-08T08:13:01.038Z,8.15
2022-11-08T08:15:28.909Z,8.25
2022-11-08T08:17:56.895Z,7.70
2022-11-08T08:20:24.956Z,7.80
2022-11-08T08:22:52.938Z,8.25
2022-11-08T08:25:22.309Z,7.70
2022-11-08T08:27:50.305Z,7.75
2022-11-08T08:30:18.585Z,8.15
2022-11-08T08:32:53.455Z,7.82
2022-11-08T08:35:30.638Z,7.53
2022-11-08T08:37:59.981Z,7.63
2022-11-08T08:40:29.307Z,8.00
2022-11-08T08:42:59.035Z,7.97
2022-11-08T08:45:27.427Z,7.43
2022-11-08T08:47:55.886Z,7.47
2022-11-08T08:50:23.948Z,7.07
2022-11-08T08:52:51.857Z,7.38
2022-11-08T08:55:19.774Z,7.15
2022-11-08T08:57:49.148Z,7.53
2022-11-08T09:03:05.687Z,7.50
2022-11-08T09:05:33.673Z,7.00
2022-11-08T09:08:01.571Z,6.88
2022-11-08T09:10:29.504Z,7.43
2022-11-08T09:12:58.738Z,7.53
2022-11-08T09:15:26.639Z,7.38
2022-11-08T09:17:55.070Z,6.97
2022-11-08T09:20:23.162Z,6.55
2022-11-08T09:22:51.062Z,6.50
2022-11-08T09:25:19.039Z,7.25
2022-11-08T09:27:46.911Z,6.55
2022-11-08T09:30:16.364Z,7.63
2022-11-08T09:33:00.349Z,6.95
2022-11-08T09:35:29.061Z,6.88
2022-11-08T09:37:57.105Z,6.88
2022-11-08T09:40:27.635Z,6.90
2022-11-08T09:43:01.666Z,6.53
2022-11-08T09:45:33.003Z,6.18
2022-11-08T09:48:05.240Z,6.72
2022-11-08T09:50:37.124Z,6.57
2022-11-08T09:53:12.323Z,6.28
2022-11-08T09:55:41.611Z,6.95
2022-11-08T09:58:16.593Z,6.70
2022-11-08T10:00:46.328Z,6.05
2022-11-08T10:03:15.757Z,6.13
2022-11-08T10:05:45.120Z,6.40
2022-11-08T10:08:17.932Z,6.65
2022-11-08T10:10:58.562Z,6.18
2022-11-08T10:13:31.075Z,6.50
2022-11-08T10:16:03.231Z,6.15
2022-11-08T10:18:58.284Z,6.38
2022-11-08T10:21:45.484Z,6.45
2022-11-08T10:24:16.633Z,6.00
2022-11-08T10:26:46.237Z,6.00
2022-11-08T10:29:20.500Z,5.85
2022-11-08T10:31:57.930Z,6.05
2022-11-08T10:34:28.122Z,5.45
2022-11-08T10:37:00.248Z,6.10
2022-11-08T10:39:28.980Z,5.97
2022-11-08T10:41:59.689Z,5.88
2022-11-08T10:44:27.764Z,5.90
2022-11-08T10:47:00.882Z,5.82
2022-11-08T10:49:30.606Z,5.50
2022-11-08T10:51:59.584Z,5.90
2022-11-08T10:54:43.997Z,5.93
2022-11-08T10:57:13.057Z,5.65
2022-11-08T10:59:40.951Z,6.03
2022-11-08T11:02:22.508Z,5.63
2022-11-08T11:04:51.556Z,5.65
2022-11-08T11:07:31.043Z,6.03
2022-11-08T11:09:59.319Z,5.50
2022-11-08T11:12:27.237Z,5.57
2022-11-08T11:14:58.942Z,5.93
2022-11-08T11:17:34.088Z,6.00
2022-11-08T11:20:05.444Z,5.43
2022-11-08T11:22:33.950Z,5.43
2022-11-08T11:25:06.458Z,5.22
2022-11-08T11:27:35.889Z,5.30
2022-11-08T11:30:28.103Z,5.35
2022-11-08T11:32:59.404Z,5.30
2022-11-08T11:35:30.078Z,5.30
2022-11-08T11:37:57.931Z,5.18
2022-11-08T11:40:28.183Z,5.10
2022-11-08T11:43:01.013Z,5.45
2022-11-08T11:45:31.347Z,4.88
2022-11-08T11:48:02.350Z,5.40
2022-11-08T11:50:32.688Z,4.95
2022-11-08T11:53:01.540Z,4.93
2022-11-08T11:55:35.417Z,4.80
2022-11-08T11:58:08.814Z,5.15
2022-11-08T12:00:36.713Z,5.50
2022-11-08T12:03:17.794Z,5.07
2022-11-08T12:06:07.025Z,5.00
2022-11-08T12:08:40.827Z,4.72
2022-11-08T12:11:18.426Z,4.78
2022-11-08T12:13:54.725Z,4.47
2022-11-08T12:16:24.965Z,5.03
2022-11-08T12:19:03.846Z,4.90
2022-11-08T12:21:34.433Z,4.65
2022-11-08T12:24:17.306Z,4.50
2022-11-08T12:26:49.746Z,4.43
2022-11-08T12:29:23.749Z,4.90
2022-11-08T12:32:00.474Z,4.93
2022-11-08T12:34:31.090Z,4.43
2022-11-08T12:37:04.847Z,4.45
2022-11-08T12:39:35.687Z,4.90
2022-11-08T12:42:15.863Z,4.40
2022-11-08T12:45:11.964Z,5.22
2022-11-08T12:47:42.489Z,4.95
2022-11-08T12:50:25.957Z,4.95
2022-11-08T12:53:23.525Z,4.40
2022-11-08T12:55:51.745Z,4.18
2022-11-08T12:58:28.379Z,4.60
2022-11-08T13:01:02.118Z,4.03
2022-11-08T13:03:51.219Z,4.00
2022-11-08T13:06:24.242Z,4.70
2022-11-08T13:08:56.631Z,4.07
2022-11-08T13:11:28.110Z,3.83
2022-11-08T13:13:56.651Z,4.30
2022-11-08T13:16:25.239Z,4.28
2022-11-08T13:18:53.538Z,4.22
2022-11-08T13:21:51.760Z,4.03
2022-11-08T13:24:44.477Z,4.30
2022-11-08T13:27:39.704Z,3.95
2022-11-08T13:30:38.492Z,4.25
2022-11-08T13:33:16.652Z,4.07
2022-11-08T13:35:48.604Z,4.10
2022-11-08T13:38:23.555Z,4.40
2022-11-08T13:41:08.735Z,3.83
2022-11-08T13:43:36.850Z,3.95
2022-11-08T13:46:47.326Z,3.90
2022-11-08T13:49:17.023Z,4.03
2022-11-08T13:51:46.061Z,3.95
2022-11-08T13:54:53.248Z,3.83
2022-11-08T13:57:21.536Z,3.78
2022-11-08T13:59:58.269Z,4.20
2022-11-08T14:02:39.271Z,4.07
2022-11-08T14:05:16.670Z,4.03
2022-11-08T14:07:45.943Z,4.18
2022-11-08T14:10:18.485Z,3.67
2022-11-08T14:12:48.788Z,3.83
2022-11-08T14:15:18.237Z,3.70
2022-11-08T14:17:46.684Z,4.03
2022-11-08T14:20:27.737Z,3.88
2022-11-08T14:22:55.616Z,4.10
2022-11-08T14:25:27.544Z,3.55
2022-11-08T14:27:55.474Z,3.35
2022-11-08T14:30:24.085Z,3.70
2022-11-08T14:33:06.445Z,3.65
2022-11-08T14:35:34.302Z,3.30
2022-11-08T14:38:02.190Z,3.40
2022-11-08T14:40:31.374Z,3.35
2022-11-08T14:42:59.278Z,3.47
2022-11-08T14:45:29.178Z,3.30
2022-11-08T14:48:01.359Z,3.38
2022-11-08T14:50:31.299Z,3.33
2022-11-08T14:53:20.618Z,3.80
2022-11-08T14:55:54.906Z,3.40
2022-11-08T14:58:22.811Z,3.60
2022-11-08T15:00:50.857Z,3.40
2022-11-08T15:03:19.443Z,3.50
2022-11-08T15:05:48.701Z,3.55
2022-11-08T15:08:20.936Z,3.78
2022-11-08T15:10:57.912Z,3.53
2022-11-08T15:13:26.153Z,3.33
2022-11-08T15:15:55.357Z,3.70
2022-11-08T15:18:27.032Z,3.40
2022-11-08T15:20:56.302Z,3.10
2022-11-08T15:23:25.798Z,3.42
2022-11-08T15:25:58.601Z,3.40
2022-11-08T15:28:27.052Z,3.25
2022-11-08T15:30:56.200Z,3.00
2022-11-08T15:33:24.361Z,3.22
2022-11-08T15:35:52.362Z,3.33
2022-11-08T15:38:30.340Z,3.38
2022-11-08T15:41:00.339Z,3.38
2022-11-08T15:43:40.040Z,3.90
2022-11-08T15:46:08.083Z,3.78
2022-11-08T15:48:36.174Z,3.25
2022-11-08T15:51:05.423Z,3.33
2022-11-08T15:53:33.505Z,3.10
2022-11-08T15:56:03.358Z,3.40
2022-11-08T15:58:31.744Z,3.65
2022-11-08T16:01:00.476Z,3.20
2022-11-08T16:03:28.378Z,3.50
2022-11-08T16:05:56.402Z,3.67
2022-11-08T16:08:24.720Z,3.38
2022-11-08T16:10:54.832Z,3.30
2022-11-08T16:13:26.815Z,3.70
2022-11-08T16:15:54.821Z,3.47
2022-11-08T16:18:23.682Z,3.55
2022-11-08T16:20:51.827Z,3.70
2022-11-08T16:23:19.731Z,3.92
2022-11-08T16:25:48.605Z,3.70
2022-11-08T16:28:20.748Z,4.07
2022-11-08T16:30:50.303Z,3.60
2022-11-08T16:33:20.396Z,3.38
2022-11-08T16:35:48.279Z,3.63
2022-11-08T16:38:16.657Z,3.47
2022-11-08T16:40:44.767Z,3.55
2022-11-08T16:43:12.924Z,3.88
2022-11-08T16:46:04.467Z,3.60
2022-11-08T16:48:30.099Z,3.80
2022-11-08T16:50:59.781Z,3.60
2022-11-08T16:53:29.285Z,3.63
2022-11-08T16:55:57.965Z,3.65
2022-11-08T16:58:25.977Z,3.60
2022-11-08T17:00:53.931Z,3.72
2022-11-08T17:03:22.531Z,3.70
2022-11-08T17:05:51.958Z,3.40
2022-11-08T17:08:20.253Z,3.20
2022-11-08T17:10:48.468Z,3.50
2022-11-08T17:13:16.738Z,3.95
2022-11-08T17:15:44.631Z,3.60
2022-11-08T17:18:13.307Z,3.60
2022-11-08T17:20:41.359Z,3.40
2022-11-08T17:23:11.737Z,3.55
2022-11-08T17:25:42.795Z,3.78
2022-11-08T17:28:10.878Z,3.78
2022-11-08T17:30:43.857Z,3.53
2022-11-08T17:33:12.962Z,3.80
2022-11-08T17:35:44.042Z,3.60
2022-11-08T17:38:13.869Z,3.67
2022-11-08T17:40:42.674Z,3.60
2022-11-08T17:43:10.728Z,3.45
2022-11-08T17:45:38.642Z,3.63
2022-11-08T17:48:06.672Z,3.65
2022-11-08T17:50:34.615Z,3.58
2022-11-08T17:53:02.515Z,4.40
2022-11-08T17:55:31.772Z,3.47
2022-11-08T17:57:59.640Z,3.53
2022-11-08T18:00:27.680Z,3.70
2022-11-08T18:02:55.629Z,3.90
2022-11-08T18:05:23.579Z,3.60
2022-11-08T18:07:51.463Z,3.80
2022-11-08T18:10:19.330Z,3.78
2022-11-08T18:12:48.531Z,4.00
2022-11-08T18:15:16.497Z,3.55
2022-11-08T18:17:44.384Z,3.78
2022-11-08T18:20:12.843Z,3.90
2022-11-08T18:22:41.001Z,3.95
2022-11-08T18:25:09.780Z,4.07
2022-11-08T18:27:38.808Z,3.80
2022-11-08T18:30:09.266Z,4.03
2022-11-08T18:32:37.465Z,4.00
2022-11-08T18:35:06.370Z,3.92
2022-11-08T18:37:34.266Z,4.20
2022-11-08T18:40:02.151Z,4.22
2022-11-08T18:42:30.284Z,3.78
2022-11-08T18:44:58.111Z,4.45
2022-11-08T18:47:28.432Z,4.07
2022-11-08T18:49:59.486Z,5.47
2022-11-08T18:52:27.409Z,3.85
2022-11-08T18:54:55.329Z,3.72
2022-11-08T18:57:23.447Z,4.00
2022-11-08T18:59:51.366Z,3.92
2022-11-08T19:02:20.444Z,4.20
2022-11-08T19:04:49.724Z,4.13
2022-11-08T19:07:17.607Z,3.92
2022-11-08T19:09:45.584Z,4.25
2022-11-08T19:12:13.558Z,4.03
2022-11-08T19:14:41.456Z,4.30
2022-11-08T19:17:09.468Z,4.50
2022-11-08T19:19:37.968Z,4.25
2022-11-08T19:22:07.231Z,4.18
2022-11-08T19:24:35.169Z,4.35
2022-11-08T19:27:03.310Z,3.95
2022-11-08T19:29:31.327Z,4.50
2022-11-08T19:31:59.214Z,4.13
2022-11-08T19:34:27.064Z,4.15
2022-11-08T19:36:56.205Z,4.05
2022-11-08T19:39:25.769Z,4.35
2022-11-08T19:41:53.704Z,4.53
2022-11-08T19:44:21.770Z,4.70
2022-11-08T19:46:49.923Z,4.40
2022-11-08T19:49:17.971Z,4.45
2022-11-08T19:51:46.914Z,4.80
2022-11-08T19:54:15.040Z,5.00
2022-11-08T19:57:03.748Z,5.20
2022-11-08T19:59:32.754Z,4.97
2022-11-08T20:02:00.746Z,5.10
2022-11-08T20:04:28.844Z,5.22
2022-11-08T20:06:57.336Z,5.10
2022-11-08T20:09:30.186Z,4.72
2022-11-08T20:11:59.946Z,5.10
2022-11-08T20:14:27.868Z,4.88
2022-11-08T20:16:55.810Z,5.40
2022-11-08T20:19:23.705Z,5.05
2022-11-08T20:21:51.597Z,5.25
2022-11-08T20:24:19.857Z,5.07
2022-11-08T20:26:47.792Z,4.82
2022-11-08T20:29:17.053Z,4.82
2022-11-08T20:31:44.919Z,5.30
2022-11-08T20:34:13.241Z,4.70
2022-11-08T20:36:41.824Z,5.10
2022-11-08T20:39:10.575Z,5.18
2022-11-08T20:41:39.214Z,5.15
2022-11-08T20:44:07.396Z,5.70
2022-11-08T20:46:36.714Z,5.38
2022-11-08T20:49:04.683Z,5.78
2022-11-08T20:51:32.712Z,4.80
2022-11-08T20:54:01.024Z,5.15
2022-11-08T20:56:29.259Z,5.10
2022-11-08T20:58:57.352Z,5.15
2022-11-08T21:01:27.994Z,5.47
2022-11-08T21:03:57.561Z,5.32
2022-11-08T21:06:26.552Z,5.18
2022-11-08T21:09:00.983Z,5.18
2022-11-08T21:11:31.111Z,5.38
2022-11-08T21:13:59.208Z,5.10
2022-11-08T21:16:35.026Z,5.22
2022-11-08T21:19:11.933Z,4.82
2022-11-08T21:21:39.930Z,5.15
2022-11-08T21:24:08.751Z,4.88
2022-11-08T21:26:37.011Z,5.18
2022-11-08T21:29:05.091Z,4.85
2022-11-08T21:31:33.088Z,5.07
2022-11-08T21:34:01.111Z,5.07
2022-11-08T21:36:30.309Z,5.43
2022-11-08T21:38:58.273Z,5.43
2022-11-08T21:41:26.298Z,5.47
2022-11-08T21:43:54.266Z,4.80
2022-11-08T21:46:23.096Z,4.90
2022-11-08T21:48:54.661Z,5.25
2022-11-08T21:51:22.615Z,5.00
2022-11-08T21:53:55.181Z,5.20
2022-11-08T21:56:23.850Z,4.60
2022-11-08T21:58:51.896Z,5.38
2022-11-08T22:01:19.962Z,5.15
2022-11-08T22:03:48.886Z,5.30
2022-11-08T22:06:16.810Z,4.97
2022-11-08T22:08:44.729Z,5.50
2022-11-08T22:11:13.988Z,5.55
2022-11-08T22:13:41.897Z,5.57
2022-11-08T22:16:09.812Z,5.60
2022-11-08T22:21:42.924Z,5.32
2022-11-08T22:24:12.133Z,5.40
2022-11-08T22:26:41.607Z,5.00
2022-11-08T22:29:09.597Z,5.60
2022-11-08T22:31:37.581Z,5.28
2022-11-08T22:34:05.625Z,5.65
2022-11-08T22:36:33.648Z,5.40
2022-11-08T22:39:01.670Z,4.97
2022-11-08T22:41:29.691Z,5.53
2022-11-08T22:43:58.977Z,5.55
2022-11-08T22:46:26.919Z,5.30
2022-11-08T22:48:54.844Z,5.72
2022-11-08T22:51:22.784Z,5.15
2022-11-08T22:53:50.746Z,5.82
2022-11-08T22:56:18.627Z,6.07
2022-11-08T22:58:46.527Z,5.38
2022-11-08T23:01:16.367Z,5.78
2022-11-08T23:03:45.791Z,5.97
2022-11-08T23:06:14.004Z,5.85
2022-11-08T23:08:41.926Z,5.75
2022-11-08T23:11:27.617Z,5.43
2022-11-08T23:14:12.969Z,5.22
2022-11-08T23:16:43.928Z,5.85
2022-11-08T23:19:30.695Z,5.60
2022-11-08T23:22:16.345Z,5.93
2022-11-08T23:24:44.251Z,5.78
2022-11-08T23:27:30.444Z,5.68
2022-11-08T23:30:16.095Z,5.53
2022-11-08T23:32:46.137Z,5.80
2022-11-08T23:35:14.371Z,5.78
2022-11-08T23:37:42.344Z,5.15
2022-11-08T23:40:28.920Z,5.82
2022-11-08T23:43:22.472Z,6.13
2022-11-08T23:45:50.533Z,5.40
2022-11-08T23:48:19.873Z,5.40
2022-11-08T23:50:49.750Z,5.65
2022-11-08T23:53:18.004Z,5.32
2022-11-08T23:55:46.153Z,5.43
2022-11-08T23:58:14.406Z,5.57
